Time;durP1;ratioP1;P1;durP2;ratioP2;P2;SDS_P1;SDS_P2;PMS_P1;PMS_P2;Temp;Humidity;BMP_temperature;BMP_pressure;BME280_temperature;BME280_humidity;BME280_pressure;Samples;Min_cycle;Max_cycle;Signal;HPM_P1;HPM_P2
2023/05/19 00:01:08;;;;;;;8.20;5.47;;;8.70;99.90;;;;;;5095226;28;20189;-84
2023/05/19 00:03:39;;;;;;;9.77;6.10;;;8.60;99.90;;;;;;5095059;28;20165;-84
2023/05/19 00:06:09;;;;;;;10.13;5.83;;;8.50;99.90;;;;;;5094782;28;20225;-83
2023/05/19 00:08:37;;;;;;;14.03;5.47;;;8.60;99.90;;;;;;5095313;28;20169;-83
2023/05/19 00:11:03;;;;;;;11.60;5.77;;;8.60;99.90;;;;;;5095499;28;20184;-82
2023/05/19 00:13:29;;;;;;;9.83;5.57;;;8.60;99.90;;;;;;5094802;28;20203;-82
2023/05/19 00:15:55;;;;;;;9.87;5.57;;;8.50;99.90;;;;;;5093853;28;20181;-81
2023/05/19 00:18:21;;;;;;;11.93;5.67;;;8.40;99.90;;;;;;5093814;28;20177;-82
2023/05/19 00:20:48;;;;;;;9.97;5.67;;;8.40;99.90;;;;;;5093599;28;20204;-81
2023/05/19 00:23:14;;;;;;;10.90;5.53;;;8.30;99.90;;;;;;5093462;28;20696;-83
2023/05/19 00:25:39;;;;;;;7.43;5.43;;;8.30;99.90;;;;;;5093748;28;20260;-82
2023/05/19 00:28:05;;;;;;;8.17;5.60;;;8.30;99.90;;;;;;5095025;28;20256;-82
2023/05/19 00:30:31;;;;;;;8.47;5.47;;;8.20;99.90;;;;;;5093447;28;20241;-82
2023/05/19 00:32:57;;;;;;;9.90;5.97;;;8.10;99.90;;;;;;5093893;28;20201;-82
2023/05/19 00:35:23;;;;;;;8.17;5.53;;;8.00;99.90;;;;;;5093727;28;20173;-82
2023/05/19 00:37:49;;;;;;;8.67;5.50;;;8.10;99.90;;;;;;5093677;28;20249;-82
2023/05/19 00:40:15;;;;;;;8.93;5.80;;;8.00;99.90;;;;;;5095327;28;20638;-82
2023/05/19 00:42:41;;;;;;;11.87;6.27;;;7.90;99.90;;;;;;5093487;28;20204;-83
2023/05/19 00:45:07;;;;;;;8.13;6.13;;;7.90;99.90;;;;;;5093579;28;20165;-82
2023/05/19 00:47:33;;;;;;;11.13;6.27;;;7.90;99.90;;;;;;5093318;28;20177;-82
2023/05/19 00:49:59;;;;;;;9.93;6.50;;;7.90;99.90;;;;;;5093610;28;20184;-82
2023/05/19 00:52:25;;;;;;;11.63;7.10;;;7.80;99.90;;;;;;5093359;28;20219;-82
2023/05/19 00:54:52;;;;;;;11.43;6.33;;;7.70;99.90;;;;;;5093471;28;20668;-82
2023/05/19 00:57:19;;;;;;;9.47;6.10;;;7.70;99.90;;;;;;5093252;28;20246;-82
2023/05/19 00:59:46;;;;;;;8.77;6.27;;;7.70;99.90;;;;;;5093326;28;20188;-82
2023/05/19 01:02:13;;;;;;;12.90;7.27;;;7.60;99.90;;;;;;5093391;28;20228;-82
2023/05/19 01:04:40;;;;;;;11.37;7.00;;;7.70;99.90;;;;;;5093309;28;20667;-83
2023/05/19 01:07:06;;;;;;;8.03;6.00;;;7.70;99.90;;;;;;5093847;28;20173;-83
2023/05/19 01:09:32;;;;;;;10.43;6.43;;;7.80;99.90;;;;;;5093654;28;20173;-83
2023/05/19 01:11:59;;;;;;;9.13;6.17;;;7.70;99.90;;;;;;5094450;28;20193;-83
2023/05/19 01:14:25;;;;;;;10.77;6.23;;;7.80;99.90;;;;;;5093833;28;20229;-83
2023/05/19 01:17:16;;;;;;;9.77;6.63;;;7.70;99.90;;;;;;5093774;28;20173;-83
2023/05/19 01:20:33;;;;;;;8.13;6.23;;;7.70;99.90;;;;;;5095537;28;20176;-83
2023/05/19 01:23:55;;;;;;;19.33;7.10;;;7.60;99.90;;;;;;5086851;28;20622;-83
2023/05/19 01:26:49;;;;;;;10.73;6.40;;;7.60;99.90;;;;;;5074157;28;20264;-83
2023/05/19 01:29:34;;;;;;;9.60;6.50;;;7.50;99.90;;;;;;5094028;28;20177;-83
2023/05/19 01:32:02;;;;;;;11.27;7.23;;;7.40;99.90;;;;;;5094911;28;20272;-80
2023/05/19 01:34:30;;;;;;;10.53;7.10;;;7.30;99.90;;;;;;5093386;28;20547;-81
2023/05/19 01:36:59;;;;;;;11.50;6.90;;;7.20;99.90;;;;;;5093109;28;20177;-82
2023/05/19 01:39:25;;;;;;;11.83;7.10;;;7.10;99.90;;;;;;5092852;28;20184;-81
2023/05/19 01:41:52;;;;;;;9.13;6.53;;;7.20;99.90;;;;;;5092794;28;20241;-81
2023/05/19 01:44:18;;;;;;;8.33;6.00;;;7.20;99.90;;;;;;5093328;28;20197;-81
2023/05/19 01:46:44;;;;;;;8.43;5.73;;;7.20;99.90;;;;;;5093021;28;20185;-84
2023/05/19 01:49:10;;;;;;;7.20;6.37;;;7.30;99.90;;;;;;5093911;28;20169;-84
2023/05/19 01:51:36;;;;;;;10.27;6.30;;;7.30;99.90;;;;;;5092678;28;20197;-84
2023/05/19 01:54:02;;;;;;;10.77;7.57;;;7.20;99.90;;;;;;5092663;28;20185;-83
2023/05/19 01:56:56;;;;;;;9.13;6.57;;;7.10;99.90;;;;;;5093964;28;20730;-83
2023/05/19 01:59:48;;;;;;;9.13;6.83;;;7.10;99.90;;;;;;5092949;28;20197;-83
2023/05/19 02:02:31;;;;;;;7.70;6.60;;;7.00;99.90;;;;;;5092395;28;20260;-83
2023/05/19 02:05:04;;;;;;;9.30;7.03;;;7.10;99.90;;;;;;5092974;28;20634;-84
2023/05/19 02:07:51;;;;;;;9.77;7.03;;;7.00;99.90;;;;;;5095238;28;20165;-82
2023/05/19 02:10:29;;;;;;;14.47;6.77;;;7.00;99.90;;;;;;5100098;28;20222;-83
2023/05/19 02:12:59;;;;;;;9.90;6.40;;;7.00;99.90;;;;;;5099676;28;20205;-83
2023/05/19 02:15:32;;;;;;;8.70;6.60;;;7.00;99.90;;;;;;5097778;28;20173;-83
2023/05/19 02:18:02;;;;;;;15.67;6.90;;;6.90;99.90;;;;;;5099374;28;20303;-83
2023/05/19 02:20:29;;;;;;;10.13;6.87;;;6.90;99.90;;;;;;5098525;28;20157;-83
2023/05/19 02:22:55;;;;;;;9.63;6.27;;;7.00;99.90;;;;;;5097263;28;20300;-83
2023/05/19 02:25:22;;;;;;;8.63;6.77;;;6.90;99.90;;;;;;5097739;28;20257;-83
2023/05/19 02:27:48;;;;;;;10.37;7.47;;;6.80;99.90;;;;;;5097203;28;20659;-82
2023/05/19 02:30:16;;;;;;;10.13;6.30;;;6.80;99.90;;;;;;5099130;28;20193;-81
2023/05/19 02:32:45;;;;;;;10.70;6.60;;;6.80;99.90;;;;;;5097348;28;20299;-81
2023/05/19 02:35:11;;;;;;;8.23;6.57;;;6.60;99.90;;;;;;5097574;28;20714;-81
2023/05/19 02:37:38;;;;;;;10.63;6.87;;;6.60;99.90;;;;;;5096955;28;20180;-83
2023/05/19 02:40:05;;;;;;;11.77;7.17;;;6.50;99.90;;;;;;5095946;28;20679;-83
2023/05/19 02:42:30;;;;;;;11.43;7.07;;;6.50;99.90;;;;;;5095924;28;20571;-82
2023/05/19 02:44:56;;;;;;;8.93;6.73;;;6.60;99.90;;;;;;5096780;28;20173;-83
2023/05/19 02:47:22;;;;;;;9.13;6.27;;;6.70;99.90;;;;;;5099003;28;20197;-83
2023/05/19 02:49:48;;;;;;;11.63;7.07;;;6.60;99.90;;;;;;5098399;28;20201;-83
2023/05/19 02:52:13;;;;;;;7.33;6.23;;;6.60;99.90;;;;;;5096459;28;20708;-83
2023/05/19 02:54:39;;;;;;;8.03;6.73;;;6.60;99.90;;;;;;5096883;28;20181;-84
2023/05/19 02:57:05;;;;;;;9.03;6.83;;;6.50;99.90;;;;;;5096760;28;20188;-83
2023/05/19 02:59:31;;;;;;;9.70;6.73;;;6.40;99.90;;;;;;5096521;28;20256;-83
2023/05/19 03:02:01;;;;;;;8.10;6.57;;;6.50;99.90;;;;;;5096002;28;20216;-83
2023/05/19 03:04:30;;;;;;;10.43;6.73;;;6.40;99.90;;;;;;5096040;28;20173;-84
2023/05/19 03:06:59;;;;;;;11.47;6.53;;;6.40;99.90;;;;;;5096512;28;20165;-81
2023/05/19 03:09:24;;;;;;;8.07;6.20;;;6.40;99.90;;;;;;5095614;28;20173;-82
2023/05/19 03:11:50;;;;;;;13.67;7.40;;;6.40;99.90;;;;;;5096634;28;20673;-81
2023/05/19 03:14:17;;;;;;;8.40;6.97;;;6.40;99.90;;;;;;5095519;28;20263;-83
2023/05/19 03:16:43;;;;;;;11.30;7.30;;;6.50;99.90;;;;;;5097515;28;20169;-81
2023/05/19 03:19:09;;;;;;;11.83;6.63;;;6.40;99.90;;;;;;5097381;28;20184;-81
2023/05/19 03:21:34;;;;;;;8.27;7.20;;;6.30;99.90;;;;;;5096639;28;20185;-82
2023/05/19 03:24:01;;;;;;;9.53;7.77;;;6.20;99.90;;;;;;5096813;28;20169;-82
2023/05/19 03:26:28;;;;;;;12.43;7.13;;;6.20;99.90;;;;;;5094708;28;20264;-83
2023/05/19 03:28:54;;;;;;;9.60;7.00;;;6.20;99.90;;;;;;5096191;28;20195;-83
2023/05/19 03:31:20;;;;;;;10.67;7.03;;;6.10;99.90;;;;;;5095316;28;20181;-84
2023/05/19 03:33:46;;;;;;;10.80;6.87;;;6.00;99.90;;;;;;5094948;28;20213;-84
2023/05/19 03:36:11;;;;;;;8.37;7.10;;;5.90;99.90;;;;;;5094934;28;20169;-84
2023/05/19 03:38:37;;;;;;;11.07;7.40;;;5.80;99.90;;;;;;5094975;28;20184;-84
2023/05/19 03:41:03;;;;;;;9.50;7.93;;;5.80;99.90;;;;;;5095074;28;20185;-84
2023/05/19 03:43:29;;;;;;;12.30;7.83;;;5.70;99.90;;;;;;5094622;28;20257;-85
2023/05/19 03:45:55;;;;;;;8.47;7.23;;;5.60;99.90;;;;;;5094759;28;20548;-85
2023/05/19 03:48:21;;;;;;;10.07;7.57;;;5.60;99.90;;;;;;5094805;28;20190;-85
2023/05/19 03:50:47;;;;;;;11.60;8.10;;;5.70;99.90;;;;;;5094922;28;20567;-83
2023/05/19 03:53:13;;;;;;;16.13;7.40;;;5.80;99.90;;;;;;5095812;28;20276;-84
2023/05/19 03:55:39;;;;;;;13.27;8.17;;;5.90;99.90;;;;;;5094545;28;20272;-83
2023/05/19 03:58:05;;;;;;;10.30;7.97;;;6.00;99.90;;;;;;5094864;28;20183;-84
2023/05/19 04:00:30;;;;;;;12.07;7.90;;;6.10;99.90;;;;;;5094616;28;20177;-83
2023/05/19 04:02:56;;;;;;;14.27;7.63;;;6.10;99.90;;;;;;5093954;28;20227;-83
2023/05/19 04:05:22;;;;;;;11.10;7.63;;;6.10;99.90;;;;;;5094090;28;20180;-84
2023/05/19 04:07:48;;;;;;;9.07;7.37;;;6.00;99.90;;;;;;5094089;28;20684;-83
2023/05/19 04:10:13;;;;;;;11.10;7.33;;;5.80;99.90;;;;;;5093989;28;20260;-85
2023/05/19 04:12:39;;;;;;;9.90;7.27;;;5.70;99.90;;;;;;5093710;28;20229;-85
2023/05/19 04:15:05;;;;;;;10.73;8.33;;;5.60;99.90;;;;;;5094211;28;20195;-84
2023/05/19 04:17:37;;;;;;;8.73;7.70;;;5.50;99.90;;;;;;5093759;28;20755;-84
2023/05/19 04:20:04;;;;;;;11.27;7.87;;;5.40;99.90;;;;;;5094351;28;20625;-84
2023/05/19 04:22:31;;;;;;;11.93;8.27;;;5.30;99.90;;;;;;5093695;28;20217;-84
2023/05/19 04:24:57;;;;;;;12.90;7.70;;;5.30;99.90;;;;;;5093791;28;20181;-84
2023/05/19 04:27:22;;;;;;;10.17;7.90;;;5.20;99.90;;;;;;5095009;28;20551;-83
2023/05/19 04:29:48;;;;;;;8.53;7.67;;;5.20;99.90;;;;;;5093963;28;20290;-83
2023/05/19 04:32:16;;;;;;;10.63;7.93;;;5.30;99.90;;;;;;5093046;28;20771;-83
2023/05/19 04:34:44;;;;;;;9.57;8.50;;;5.40;99.90;;;;;;5093731;28;20177;-83
2023/05/19 04:37:11;;;;;;;12.70;8.30;;;5.40;99.90;;;;;;5093953;28;20684;-84
2023/05/19 04:39:44;;;;;;;12.00;8.17;;;5.60;99.90;;;;;;5093690;28;20181;-84
2023/05/19 04:42:10;;;;;;;16.07;8.67;;;5.70;99.90;;;;;;5095625;28;20268;-84
2023/05/19 04:44:38;;;;;;;10.40;8.70;;;5.90;99.90;;;;;;5094200;28;20203;-84
2023/05/19 04:47:09;;;;;;;10.70;8.07;;;6.00;99.90;;;;;;5094312;28;20181;-84
2023/05/19 04:49:41;;;;;;;11.23;8.37;;;6.10;99.90;;;;;;5095749;28;20208;-82
2023/05/19 04:52:11;;;;;;;11.83;7.83;;;6.30;99.90;;;;;;5094947;28;20200;-82
2023/05/19 04:54:38;;;;;;;12.73;8.47;;;6.40;99.90;;;;;;5094852;28;20205;-82
2023/05/19 04:57:04;;;;;;;8.87;7.93;;;6.50;99.90;;;;;;5093711;28;20181;-81
2023/05/19 04:59:30;;;;;;;9.70;8.13;;;6.50;99.90;;;;;;5093568;28;20172;-81
2023/05/19 05:01:56;;;;;;;11.93;8.07;;;6.60;99.90;;;;;;5093264;28;20217;-81
2023/05/19 05:04:22;;;;;;;12.97;8.07;;;6.70;99.90;;;;;;5093632;28;20184;-83
2023/05/19 05:06:49;;;;;;;11.77;7.67;;;6.80;99.90;;;;;;5093175;28;20181;-83
2023/05/19 05:09:16;;;;;;;12.83;8.13;;;6.90;99.90;;;;;;5093311;28;20177;-83
2023/05/19 05:11:43;;;;;;;10.00;8.10;;;7.00;99.90;;;;;;5093109;28;20205;-83
2023/05/19 05:14:09;;;;;;;9.33;7.73;;;6.90;99.90;;;;;;5093147;28;20195;-83
2023/05/19 05:16:35;;;;;;;10.23;8.60;;;7.00;99.90;;;;;;5094368;28;20185;-82
2023/05/19 05:19:01;;;;;;;10.67;7.90;;;7.20;99.90;;;;;;5093704;28;20184;-82
2023/05/19 05:21:28;;;;;;;9.80;7.47;;;7.30;99.90;;;;;;5094968;28;20173;-81
2023/05/19 05:23:54;;;;;;;11.93;8.07;;;7.40;99.90;;;;;;5095130;28;20260;-81
2023/05/19 05:26:23;;;;;;;10.07;8.17;;;7.40;99.90;;;;;;5095520;28;20602;-81
2023/05/19 05:28:49;;;;;;;11.20;8.30;;;7.60;99.90;;;;;;5093858;28;20229;-81
2023/05/19 05:31:15;;;;;;;12.93;8.00;;;7.70;99.90;;;;;;5093569;28;20169;-81
2023/05/19 05:33:41;;;;;;;11.67;7.40;;;7.60;99.90;;;;;;5093865;28;20533;-82
2023/05/19 05:36:08;;;;;;;10.20;7.13;;;7.60;99.90;;;;;;5095488;28;20174;-82
2023/05/19 05:38:33;;;;;;;10.27;9.07;;;7.80;99.90;;;;;;5094447;28;20264;-82
2023/05/19 05:41:00;;;;;;;10.00;7.67;;;7.80;99.90;;;;;;5094165;28;20221;-81
2023/05/19 05:43:26;;;;;;;8.50;6.47;;;7.90;99.90;;;;;;5092900;28;20204;-81
2023/05/19 05:45:52;;;;;;;10.40;7.43;;;8.00;99.90;;;;;;5096376;28;20165;-81
2023/05/19 05:48:18;;;;;;;10.63;7.07;;;8.10;99.90;;;;;;5096673;28;20183;-81
2023/05/19 05:50:44;;;;;;;12.20;7.90;;;8.20;99.90;;;;;;5096669;28;20177;-81
2023/05/19 05:53:16;;;;;;;9.27;7.30;;;8.30;99.90;;;;;;5097375;28;20197;-81
2023/05/19 05:55:42;;;;;;;10.80;7.67;;;8.30;99.90;;;;;;5097834;28;20165;-84
2023/05/19 05:58:10;;;;;;;10.87;7.03;;;8.40;99.90;;;;;;5097111;28;20644;-83
2023/05/19 06:00:36;;;;;;;8.27;6.77;;;8.40;99.90;;;;;;5096715;28;20185;-81
2023/05/19 06:03:03;;;;;;;9.57;7.20;;;8.60;99.90;;;;;;5098711;28;20346;-78
2023/05/19 06:05:29;;;;;;;12.87;8.23;;;8.70;99.90;;;;;;5097455;28;20314;-78
2023/05/19 06:07:55;;;;;;;11.13;7.13;;;8.70;99.90;;;;;;5097251;28;20188;-78
2023/05/19 06:10:22;;;;;;;9.80;6.97;;;8.70;99.90;;;;;;5098618;28;20184;-78
2023/05/19 06:12:47;;;;;;;11.77;6.53;;;8.80;99.90;;;;;;5098899;28;20208;-78
2023/05/19 06:15:13;;;;;;;12.07;7.23;;;8.90;99.90;;;;;;5098980;28;20173;-77
2023/05/19 06:17:39;;;;;;;11.97;6.87;;;9.00;99.90;;;;;;5100248;28;20180;-78
2023/05/19 06:20:05;;;;;;;9.77;6.43;;;9.10;99.90;;;;;;5104298;28;20157;-78
2023/05/19 06:22:31;;;;;;;9.27;6.67;;;9.30;99.90;;;;;;5103359;28;20581;-79
2023/05/19 06:24:57;;;;;;;15.93;7.07;;;9.30;99.90;;;;;;5104747;28;20169;-79
2023/05/19 06:27:22;;;;;;;11.20;6.83;;;9.40;99.90;;;;;;5100011;28;20618;-80
2023/05/19 06:29:48;;;;;;;12.57;7.23;;;9.50;99.90;;;;;;5099607;28;20173;-80
2023/05/19 06:32:14;;;;;;;12.23;6.73;;;9.70;99.90;;;;;;5097325;28;20237;-80
2023/05/19 06:34:40;;;;;;;8.33;6.13;;;9.80;99.90;;;;;;5096959;28;20181;-80
2023/05/19 06:37:06;;;;;;;13.30;7.53;;;9.90;99.90;;;;;;5097301;28;20185;-80
2023/05/19 06:39:32;;;;;;;11.50;6.40;;;10.10;99.90;;;;;;5098081;28;20177;-80
2023/05/19 06:41:57;;;;;;;11.50;6.23;;;10.20;99.90;;;;;;5096459;28;20219;-79
2023/05/19 06:44:23;;;;;;;9.73;6.47;;;10.30;99.90;;;;;;5096950;28;20238;-79
2023/05/19 06:46:49;;;;;;;9.63;6.17;;;10.40;99.90;;;;;;5096822;28;20173;-79
2023/05/19 06:49:15;;;;;;;8.30;5.67;;;10.50;99.90;;;;;;5095286;28;20188;-80
2023/05/19 06:51:40;;;;;;;8.40;5.57;;;10.70;99.90;;;;;;5095706;28;20279;-80
2023/05/19 06:54:06;;;;;;;8.33;5.20;;;10.80;99.90;;;;;;5096418;28;20593;-79
2023/05/19 06:56:32;;;;;;;7.17;4.93;;;10.90;99.90;;;;;;5096374;28;20747;-80
2023/05/19 06:58:58;;;;;;;11.00;6.18;;;11.10;99.90;;;;;;5095165;28;20186;-80
2023/05/19 07:01:25;;;;;;;7.53;5.27;;;11.20;99.90;;;;;;5096289;28;20207;-79
2023/05/19 07:03:51;;;;;;;7.77;5.27;;;11.40;99.90;;;;;;5096564;28;20176;-79
2023/05/19 07:06:16;;;;;;;8.03;4.90;;;11.50;99.90;;;;;;5095125;28;20177;-80
2023/05/19 07:08:42;;;;;;;9.30;5.32;;;11.60;99.90;;;;;;5096189;28;20175;-79
2023/05/19 07:11:08;;;;;;;8.25;5.00;;;11.70;99.90;;;;;;5096195;28;20521;-80
2023/05/19 07:13:33;;;;;;;10.43;5.10;;;11.90;99.90;;;;;;5094949;28;20571;-80
2023/05/19 07:15:59;;;;;;;8.50;5.22;;;12.00;99.90;;;;;;5096148;28;20207;-80
2023/05/19 07:18:25;;;;;;;10.63;4.95;;;12.10;99.90;;;;;;5096151;28;20552;-80
2023/05/19 07:20:52;;;;;;;10.05;4.95;;;12.20;99.90;;;;;;5096531;28;20242;-80
2023/05/19 07:23:18;;;;;;;7.15;4.72;;;12.40;99.90;;;;;;5096525;28;20207;-80
2023/05/19 07:25:44;;;;;;;8.75;4.53;;;12.50;99.90;;;;;;5095657;28;20548;-81
2023/05/19 07:28:10;;;;;;;5.82;4.32;;;12.60;99.90;;;;;;5095900;28;20173;-81
2023/05/19 07:30:36;;;;;;;10.80;4.57;;;12.70;99.90;;;;;;5095707;28;20683;-81
2023/05/19 07:33:02;;;;;;;8.10;4.65;;;12.80;99.90;;;;;;5095443;28;20200;-83
2023/05/19 07:35:28;;;;;;;8.18;4.20;;;13.00;99.90;;;;;;5095064;28;20184;-83
2023/05/19 07:37:54;;;;;;;10.10;4.50;;;13.00;99.90;;;;;;5094701;28;20181;-83
2023/05/19 07:40:19;;;;;;;12.02;4.10;;;13.20;99.90;;;;;;5096333;28;20571;-83
2023/05/19 07:42:45;;;;;;;4.90;4.05;;;13.30;99.90;;;;;;5094704;28;20215;-83
2023/05/19 07:45:11;;;;;;;8.35;4.00;;;13.40;99.90;;;;;;5094502;28;20169;-83
2023/05/19 07:47:37;;;;;;;10.52;4.32;;;13.50;99.90;;;;;;5097117;28;20233;-83
2023/05/19 07:50:03;;;;;;;9.27;3.78;;;13.50;99.90;;;;;;5094903;28;20532;-83
2023/05/19 07:52:28;;;;;;;8.60;4.22;;;13.60;99.90;;;;;;5096554;28;20669;-83
2023/05/19 07:54:54;;;;;;;7.40;3.80;;;13.60;99.90;;;;;;5096962;28;20184;-83
2023/05/19 07:57:21;;;;;;;7.40;3.83;;;13.80;99.90;;;;;;5097236;28;20260;-83
2023/05/19 07:59:46;;;;;;;7.60;3.67;;;13.90;33.30;;;;;;5095250;28;20177;-83
2023/05/19 08:02:12;;;;;;;10.02;4.05;;;14.00;99.90;;;;;;5094769;28;20750;-83
2023/05/19 08:04:38;;;;;;;4.18;3.50;;;14.10;99.90;;;;;;5094803;28;20190;-83
2023/05/19 08:07:05;;;;;;;11.07;3.60;;;14.20;1.00;;;;;;5095731;28;20169;-84
2023/05/19 08:09:31;;;;;;;8.55;3.40;;;14.30;1.00;;;;;;5097151;28;20256;-83
2023/05/19 08:11:57;;;;;;;9.70;3.45;;;14.50;99.90;;;;;;5096517;28;20224;-83
2023/05/19 08:14:22;;;;;;;8.05;3.50;;;14.60;1.00;;;;;;5098024;28;20164;-85
2023/05/19 08:16:49;;;;;;;6.32;3.95;;;14.70;1.00;;;;;;5097113;28;20161;-83
2023/05/19 08:19:15;;;;;;;5.88;3.33;;;14.80;18.80;;;;;;5096350;28;20177;-83
2023/05/19 08:21:41;;;;;;;6.90;3.50;;;14.90;1.00;;;;;;5095170;28;20201;-83
2023/05/19 08:24:07;;;;;;;9.10;3.45;;;15.10;99.90;;;;;;5094995;28;20179;-82
2023/05/19 08:26:33;;;;;;;7.55;3.20;;;15.60;1.00;;;;;;5095656;28;20173;-85
2023/05/19 08:28:59;;;;;;;4.68;3.00;;;16.20;99.90;;;;;;5094441;28;20234;-83
2023/05/19 08:31:25;;;;;;;5.22;3.92;;;17.00;1.00;;;;;;5093843;28;20181;-83
2023/05/19 08:33:51;;;;;;;8.25;3.25;;;17.70;99.90;;;;;;5095520;28;20149;-83
2023/05/19 08:36:17;;;;;;;3.80;2.63;;;18.10;99.90;;;;;;5093612;28;20264;-83
2023/05/19 08:38:43;;;;;;;4.35;2.72;;;18.70;1.00;;;;;;5093468;28;20225;-84
2023/05/19 08:41:09;;;;;;;6.22;3.05;;;19.20;99.90;;;;;;5093378;28;20173;-82
2023/05/19 08:43:34;;;;;;;5.75;3.05;;;19.50;1.00;;;;;;5093584;28;20209;-83
2023/05/19 08:46:02;;;;;;;8.25;2.75;;;19.60;1.00;;;;;;5093475;28;20251;-83
2023/05/19 08:48:31;;;;;;;4.78;2.95;;;20.10;99.90;;;;;;5093186;28;20226;-82
2023/05/19 08:51:13;;;;;;;9.75;3.10;;;20.10;99.90;;;;;;5096029;28;20198;-81
2023/05/19 08:53:47;;;;;;;7.07;2.50;;;20.40;99.90;;;;;;5094947;28;20169;-82
2023/05/19 08:56:20;;;;;;;5.72;2.80;;;20.60;99.90;;;;;;5093913;28;20172;-82
2023/05/19 08:58:49;;;;;;;5.97;3.08;;;21.10;78.80;;;;;;5095280;28;20157;-83
2023/05/19 09:01:15;;;;;;;7.70;2.85;;;21.10;1.00;;;;;;5093139;28;20192;-82
2023/05/19 09:03:43;;;;;;;5.75;2.80;;;20.60;1.00;;;;;;5093477;28;20232;-82
2023/05/19 09:06:12;;;;;;;8.07;3.10;;;20.30;1.00;;;;;;5093847;28;20267;-83
2023/05/19 09:08:42;;;;;;;10.63;3.10;;;20.10;1.00;;;;;;5094108;28;20168;-82
2023/05/19 09:11:11;;;;;;;7.03;3.30;;;20.00;1.00;;;;;;5094956;28;20200;-83
2023/05/19 09:13:37;;;;;;;4.75;2.67;;;19.80;1.00;;;;;;5093811;28;20572;-82
2023/05/19 09:16:03;;;;;;;11.93;3.42;;;19.90;1.00;;;;;;5095456;28;20170;-82
2023/05/19 09:18:29;;;;;;;7.57;2.97;;;20.00;1.00;;;;;;5095748;28;20177;-83
2023/05/19 09:21:01;;;;;;;8.20;3.15;;;20.20;1.00;;;;;;5097901;28;20642;-83
2023/05/19 09:23:32;;;;;;;8.32;2.67;;;20.40;1.00;;;;;;5098633;28;20222;-83
2023/05/19 09:26:02;;;;;;;6.57;2.90;;;20.50;1.00;;;;;;5098796;28;20180;-83
2023/05/19 09:28:30;;;;;;;8.38;2.88;;;20.70;1.00;;;;;;5098790;28;20154;-82
2023/05/19 09:31:03;;;;;;;8.18;2.70;;;20.80;1.00;;;;;;5098471;28;20218;-83
2023/05/19 09:33:31;;;;;;;6.95;2.95;;;20.90;1.00;;;;;;5097486;28;20207;-83
2023/05/19 09:35:57;;;;;;;7.03;2.88;;;21.10;1.00;;;;;;5099321;28;20153;-83
2023/05/19 09:38:25;;;;;;;5.38;2.88;;;20.70;1.00;;;;;;5097755;28;20191;-83
2023/05/19 09:40:55;;;;;;;5.00;2.85;;;20.30;1.00;;;;;;5097855;28;20188;-84
2023/05/19 09:43:30;;;;;;;5.82;2.80;;;20.20;1.00;;;;;;5101964;28;20215;-89
2023/05/19 09:46:02;;;;;;;8.27;2.47;;;20.20;1.00;;;;;;5103988;28;20168;-85
2023/05/19 09:48:29;;;;;;;7.53;2.80;;;20.20;1.00;;;;;;5104153;28;20248;-88
2023/05/19 09:50:56;;;;;;;6.70;3.25;;;20.60;1.00;;;;;;5099453;28;20183;-87
2023/05/19 09:53:24;;;;;;;6.78;2.83;;;20.90;1.00;;;;;;5098986;28;20188;-89
2023/05/19 09:55:55;;;;;;;7.00;2.83;;;20.80;1.00;;;;;;5097597;28;20173;-86
2023/05/19 09:58:23;;;;;;;9.80;2.60;;;21.00;1.00;;;;;;5096823;28;20310;-87
2023/05/19 10:00:50;;;;;;;10.40;2.80;;;20.80;1.00;;;;;;5096540;28;20173;-86
2023/05/19 10:03:17;;;;;;;5.32;2.58;;;21.00;1.00;;;;;;5096719;28;20308;-87
2023/05/19 10:05:44;;;;;;;5.70;2.63;;;21.10;1.00;;;;;;5096862;28;20169;-86
2023/05/19 10:08:11;;;;;;;5.72;2.60;;;21.30;1.00;;;;;;5096734;28;20645;-86
2023/05/19 10:10:37;;;;;;;5.75;2.72;;;20.80;99.90;;;;;;5097075;28;20173;-86
2023/05/19 10:13:12;;;;;;;5.13;2.53;;;20.20;99.90;;;;;;5096602;28;20200;-84
2023/05/19 10:15:41;;;;;;;6.63;2.55;;;20.10;99.90;;;;;;5097003;28;20175;-86
2023/05/19 10:18:11;;;;;;;9.35;2.80;;;20.30;99.90;;;;;;5096696;28;20204;-86
2023/05/19 10:20:38;;;;;;;7.32;2.38;;;20.60;99.90;;;;;;5096790;28;20169;-86
2023/05/19 10:23:04;;;;;;;7.40;2.80;;;20.70;99.90;;;;;;5098998;28;20204;-86
2023/05/19 10:25:32;;;;;;;7.57;3.08;;;20.60;99.90;;;;;;5096849;28;20173;-85
2023/05/19 10:28:06;;;;;;;5.85;2.63;;;20.60;99.90;;;;;;5096918;28;20170;-84
2023/05/19 10:30:41;;;;;;;9.52;3.90;;;20.40;99.90;;;;;;5096942;28;20146;-89
2023/05/19 10:33:11;;;;;;;6.47;3.13;;;20.30;99.90;;;;;;5096730;28;20542;-87
2023/05/19 10:36:07;;;;;;;4.97;2.50;;;20.40;99.90;;;;;;5096184;28;20230;-86
2023/05/19 10:38:42;;;;;;;8.35;3.00;;;20.50;99.90;;;;;;5097711;28;20517;-86
2023/05/19 10:41:31;;;;;;;8.07;2.70;;;20.10;99.90;;;;;;5096635;28;20305;-86
2023/05/19 10:44:12;;;;;;;5.63;2.70;;;19.70;99.90;;;;;;5090237;28;20255;-86
2023/05/19 10:46:40;;;;;;;6.53;3.30;;;19.80;99.90;;;;;;5097453;28;20181;-86
2023/05/19 10:49:07;;;;;;;6.70;3.17;;;19.60;99.90;;;;;;5096996;28;20654;-85
2023/05/19 10:51:34;;;;;;;6.32;3.38;;;19.70;99.90;;;;;;5096174;28;20204;-86
2023/05/19 10:54:08;;;;;;;4.97;2.50;;;19.80;99.90;;;;;;5097149;28;20154;-84
2023/05/19 10:56:40;;;;;;;7.93;2.85;;;19.90;99.90;;;;;;5096179;28;20181;-86
2023/05/19 10:59:06;;;;;;;6.20;2.78;;;20.00;99.90;;;;;;5097451;28;20169;-87
2023/05/19 11:01:37;;;;;;;7.43;3.08;;;20.10;99.90;;;;;;5097331;28;20668;-86
2023/05/19 11:04:10;;;;;;;6.28;2.97;;;20.10;99.90;;;;;;5095815;28;20173;-85
2023/05/19 11:06:38;;;;;;;8.18;2.83;;;20.10;99.90;;;;;;5095965;28;20206;-86
2023/05/19 11:09:14;;;;;;;4.88;2.85;;;20.20;99.90;;;;;;5096971;28;20165;-86
2023/05/19 11:11:48;;;;;;;6.70;2.65;;;20.10;99.90;;;;;;5095315;28;20189;-86
2023/05/19 11:14:22;;;;;;;6.60;2.70;;;20.30;99.90;;;;;;5097318;28;20157;-86
2023/05/19 11:16:49;;;;;;;9.23;2.90;;;20.40;99.90;;;;;;5096929;28;20637;-86
2023/05/19 11:19:31;;;;;;;9.00;2.92;;;20.40;99.90;;;;;;5096492;28;20173;-86
2023/05/19 11:22:09;;;;;;;7.75;3.00;;;20.20;99.90;;;;;;5095052;28;20215;-86
2023/05/19 11:24:51;;;;;;;9.50;2.47;;;20.10;99.90;;;;;;5096535;28;20154;-85
2023/05/19 11:27:32;;;;;;;7.20;3.03;;;20.10;99.90;;;;;;5095041;28;20168;-86
2023/05/19 11:30:00;;;;;;;5.40;2.63;;;20.20;99.90;;;;;;5095026;28;20165;-86
2023/05/19 11:32:28;;;;;;;5.05;2.70;;;20.30;99.90;;;;;;5095047;28;20198;-86
2023/05/19 11:34:56;;;;;;;6.60;2.75;;;20.60;99.90;;;;;;5094917;28;20174;-86
2023/05/19 11:37:22;;;;;;;6.25;2.50;;;20.60;99.90;;;;;;5095209;28;20268;-86
2023/05/19 11:39:48;;;;;;;4.57;2.58;;;20.80;99.90;;;;;;5096821;28;20199;-86
2023/05/19 11:42:14;;;;;;;5.97;2.85;;;20.80;99.90;;;;;;5094446;28;20209;-86
2023/05/19 11:44:41;;;;;;;7.28;2.15;;;20.60;99.90;;;;;;5096643;28;20200;-86
2023/05/19 11:47:07;;;;;;;9.85;2.80;;;20.50;99.90;;;;;;5095375;28;20205;-86
2023/05/19 11:49:34;;;;;;;5.25;2.40;;;20.50;99.90;;;;;;5096687;28;20170;-86
2023/05/19 11:52:03;;;;;;;7.88;3.00;;;20.70;99.90;;;;;;5095226;28;20298;-86
2023/05/19 11:54:33;;;;;;;5.05;2.65;;;20.90;99.90;;;;;;5095851;28;20660;-84
2023/05/19 11:57:01;;;;;;;7.13;2.50;;;20.80;99.90;;;;;;5096473;28;20215;-85
2023/05/19 11:59:31;;;;;;;8.38;2.45;;;20.60;99.90;;;;;;5097379;28;20172;-86
2023/05/19 12:01:59;;;;;;;5.38;2.30;;;20.70;99.90;;;;;;5097838;28;20209;-85
2023/05/19 12:04:25;;;;;;;5.10;2.45;;;20.40;99.90;;;;;;5095892;28;20177;-85
2023/05/19 12:06:51;;;;;;;5.68;2.60;;;20.40;99.90;;;;;;5096510;28;20223;-86
2023/05/19 12:09:18;;;;;;;5.65;2.50;;;20.50;99.90;;;;;;5096117;28;20176;-85
2023/05/19 12:11:44;;;;;;;5.20;2.20;;;20.70;99.90;;;;;;5094847;28;20192;-85
2023/05/19 12:14:11;;;;;;;8.18;2.47;;;21.00;99.90;;;;;;5096961;28;20223;-85
2023/05/19 12:16:36;;;;;;;5.18;2.53;;;21.20;99.90;;;;;;5094865;28;20180;-85
2023/05/19 12:19:05;;;;;;;3.70;2.10;;;21.10;99.90;;;;;;5094419;28;20586;-85
2023/05/19 12:21:31;;;;;;;5.50;2.50;;;21.40;99.90;;;;;;5095854;28;20176;-85
2023/05/19 12:23:58;;;;;;;9.45;2.60;;;21.70;99.90;;;;;;5094636;28;20209;-85
2023/05/19 12:26:24;;;;;;;4.50;2.17;;;21.50;99.90;;;;;;5098668;28;20253;-86
2023/05/19 12:28:51;;;;;;;5.80;2.33;;;21.30;99.90;;;;;;5100375;28;20200;-86
2023/05/19 12:31:17;;;;;;;5.97;2.78;;;21.50;99.90;;;;;;5096340;28;20181;-82
2023/05/19 12:33:44;;;;;;;2.42;2.10;;;21.70;99.90;;;;;;5096189;28;20176;-83
2023/05/19 12:36:12;;;;;;;6.60;2.53;;;21.70;99.90;;;;;;5102044;28;20187;-82
2023/05/19 12:38:38;;;;;;;12.35;2.97;;;21.80;99.90;;;;;;5095002;28;20169;-82
2023/05/19 12:41:05;;;;;;;3.72;2.38;;;21.80;99.90;;;;;;5095247;28;20173;-84
2023/05/19 12:43:32;;;;;;;5.07;2.60;;;21.70;99.90;;;;;;5096488;28;20227;-84
2023/05/19 12:46:07;;;;;;;4.35;2.30;;;22.00;99.90;;;;;;5095448;28;20173;-87
2023/05/19 12:48:33;;;;;;;4.25;2.20;;;22.20;99.90;;;;;;5095566;28;20567;-87
2023/05/19 12:50:59;;;;;;;3.22;2.35;;;22.00;99.90;;;;;;5095572;28;20173;-88
2023/05/19 12:53:27;;;;;;;5.80;2.00;;;22.10;99.90;;;;;;5093805;28;20575;-87
2023/05/19 12:55:52;;;;;;;8.00;2.35;;;22.30;99.90;;;;;;5094538;28;20177;-88